createdAt,value
2023-04-22T00:01:02.779Z,9.30
2023-04-22T00:03:45.054Z,9.30
2023-04-22T00:06:19.120Z,9.20
2023-04-22T00:08:56.169Z,9.20
2023-04-22T00:11:31.750Z,9.10
2023-04-22T00:14:08.606Z,9.00
2023-04-22T00:16:51.608Z,9.00
2023-04-22T00:19:28.547Z,8.90
2023-04-22T00:22:04.064Z,8.90
2023-04-22T00:24:40.403Z,8.80
2023-04-22T00:27:17.129Z,8.80
2023-04-22T00:29:52.856Z,8.80
2023-04-22T00:32:39.562Z,8.80
2023-04-22T00:35:15.369Z,8.70
2023-04-22T00:37:55.531Z,8.60
2023-04-22T00:40:32.896Z,8.60
2023-04-22T00:43:10.158Z,8.50
2023-04-22T00:45:45.148Z,8.40
2023-04-22T00:48:23.488Z,8.30
2023-04-22T00:51:01.516Z,8.20
2023-04-22T00:53:36.047Z,8.20
2023-04-22T00:56:13.237Z,8.10
2023-04-22T00:59:01.138Z,8.10
2023-04-22T01:01:37.100Z,8.00
2023-04-22T01:04:16.582Z,8.00
2023-04-22T01:06:56.743Z,8.00
2023-04-22T01:09:31.515Z,7.90
2023-04-22T01:12:07.867Z,7.90
2023-04-22T01:14:43.490Z,7.90
2023-04-22T01:17:19.704Z,7.80
2023-04-22T01:19:58.580Z,7.80
2023-04-22T01:22:33.891Z,7.80
2023-04-22T01:25:13.262Z,7.80
2023-04-22T01:27:57.106Z,7.70
2023-04-22T01:30:33.901Z,7.70
2023-04-22T01:33:12.873Z,7.70
2023-04-22T01:35:49.805Z,7.60
2023-04-22T01:38:27.381Z,7.60
2023-04-22T01:41:08.184Z,7.50
2023-04-22T01:43:41.943Z,7.50
2023-04-22T01:46:20.141Z,7.50
2023-04-22T01:48:58.181Z,7.40
2023-04-22T01:51:34.259Z,7.40
2023-04-22T01:54:11.236Z,7.40
2023-04-22T01:56:52.730Z,7.40
2023-04-22T01:59:28.828Z,7.40
2023-04-22T02:02:09.561Z,7.40
2023-04-22T02:04:46.384Z,7.40
2023-04-22T02:07:24.693Z,7.40
2023-04-22T02:10:00.409Z,7.40
2023-04-22T02:12:38.991Z,7.40
2023-04-22T02:15:15.266Z,7.30
2023-04-22T02:17:53.427Z,7.30
2023-04-22T02:20:29.907Z,7.30
2023-04-22T02:23:05.745Z,7.20
2023-04-22T02:25:42.025Z,7.20
2023-04-22T02:28:21.513Z,7.20
2023-04-22T02:31:00.440Z,7.20
2023-04-22T02:33:35.117Z,7.10
2023-04-22T02:36:11.749Z,7.10
2023-04-22T02:38:52.454Z,7.10
2023-04-22T02:41:33.374Z,7.00
2023-04-22T02:44:19.127Z,7.00
2023-04-22T02:46:58.314Z,7.00
2023-04-22T02:49:40.050Z,6.90
2023-04-22T02:52:17.902Z,6.90
2023-04-22T02:54:53.667Z,6.80
2023-04-22T02:57:29.136Z,6.80
2023-04-22T03:00:10.353Z,6.70
2023-04-22T03:02:46.421Z,6.70
2023-04-22T03:05:24.352Z,6.70
2023-04-22T03:08:00.025Z,6.60
2023-04-22T03:10:36.178Z,6.60
2023-04-22T03:13:11.901Z,6.60
2023-04-22T03:15:52.841Z,6.60
2023-04-22T03:18:34.013Z,6.50
2023-04-22T03:21:09.735Z,6.50
2023-04-22T03:23:48.091Z,6.50
2023-04-22T03:26:26.444Z,6.50
2023-04-22T03:29:03.725Z,6.50
2023-04-22T03:31:43.292Z,6.50
2023-04-22T03:34:19.219Z,6.40
2023-04-22T03:36:57.139Z,6.40
2023-04-22T03:39:33.244Z,6.30
2023-04-22T03:42:08.751Z,6.30
2023-04-22T03:44:51.792Z,6.20
2023-04-22T03:47:32.234Z,6.20
2023-04-22T03:50:18.975Z,6.10
2023-04-22T03:52:56.401Z,6.10
2023-04-22T03:55:36.256Z,6.10
2023-04-22T03:58:11.868Z,6.00
2023-04-22T04:00:47.397Z,6.10
2023-04-22T04:03:30.168Z,6.10
2023-04-22T04:06:11.909Z,6.00
2023-04-22T04:08:48.821Z,6.00
2023-04-22T04:11:26.169Z,6.00
2023-04-22T04:14:03.780Z,6.00
2023-04-22T04:16:55.155Z,6.00
2023-04-22T04:19:36.924Z,6.10
2023-04-22T04:22:16.051Z,6.20
2023-04-22T04:25:03.026Z,6.40
2023-04-22T04:27:46.719Z,6.50
2023-04-22T04:30:31.054Z,6.70
2023-04-22T04:33:13.990Z,6.90
2023-04-22T04:35:56.276Z,7.00
2023-04-22T04:38:41.784Z,7.10
2023-04-22T04:41:21.745Z,7.40
2023-04-22T04:44:00.968Z,7.70
2023-04-22T04:46:43.684Z,7.90
2023-04-22T04:49:21.142Z,8.10
2023-04-22T04:52:03.922Z,8.30
2023-04-22T04:54:42.802Z,8.60
2023-04-22T04:57:19.285Z,8.80
2023-04-22T05:00:00.161Z,9.10
2023-04-22T05:02:39.334Z,9.40
2023-04-22T05:05:18.261Z,9.70
2023-04-22T05:07:54.423Z,10.00
2023-04-22T05:10:36.068Z,10.30
2023-04-22T05:13:13.348Z,10.60
2023-04-22T05:15:55.544Z,10.80
2023-04-22T05:18:34.675Z,11.10
2023-04-22T05:21:13.174Z,11.30
2023-04-22T05:23:51.094Z,11.50
2023-04-22T05:26:33.812Z,11.60
2023-04-22T05:29:15.141Z,11.90
2023-04-22T05:31:56.555Z,12.10
2023-04-22T05:34:34.704Z,12.30
2023-04-22T05:37:12.541Z,12.50
2023-04-22T05:40:14.020Z,12.70
2023-04-22T05:42:59.281Z,12.80
2023-04-22T05:45:39.842Z,13.10
2023-04-22T05:48:19.311Z,13.20
2023-04-22T05:51:10.397Z,13.40
2023-04-22T05:53:50.402Z,13.60
2023-04-22T05:56:28.904Z,13.90
2023-04-22T05:59:05.632Z,14.10
2023-04-22T06:01:47.407Z,14.30
2023-04-22T06:04:35.546Z,14.50
2023-04-22T06:07:16.506Z,14.70
2023-04-22T06:09:59.428Z,14.90
2023-04-22T06:12:47.059Z,15.20
2023-04-22T06:15:26.871Z,15.50
2023-04-22T06:18:07.212Z,15.60
2023-04-22T06:20:43.248Z,15.90
2023-04-22T06:23:24.243Z,16.10
2023-04-22T06:26:01.826Z,16.30
2023-04-22T06:28:44.258Z,16.50
2023-04-22T06:31:25.376Z,16.60
2023-04-22T06:34:07.677Z,16.80
2023-04-22T06:39:42.224Z,17.20
2023-04-22T06:42:40.557Z,17.50
2023-04-22T06:45:33.496Z,17.70
2023-04-22T06:48:38.031Z,18.00
2023-04-22T06:51:49.640Z,18.30
2023-04-22T06:54:39.327Z,18.50
2023-04-22T06:57:15.089Z,18.70
2023-04-22T06:59:57.362Z,18.80
2023-04-22T07:02:37.995Z,18.80
2023-04-22T07:05:26.264Z,19.00
2023-04-22T07:08:10.708Z,19.20
2023-04-22T07:10:52.476Z,19.20
2023-04-22T07:13:46.692Z,19.30
2023-04-22T07:19:28.235Z,19.70
2023-04-22T07:22:07.301Z,20.00
2023-04-22T07:24:48.958Z,20.20
2023-04-22T07:30:41.166Z,20.60
2023-04-22T07:33:27.821Z,20.80
2023-04-22T07:36:06.265Z,21.10
2023-04-22T07:38:50.614Z,21.40
2023-04-22T07:42:10.947Z,21.60
2023-04-22T07:45:34.324Z,21.60
2023-04-22T07:51:28.191Z,22.30
2023-04-22T07:54:40.642Z,22.30
2023-04-22T07:57:41.344Z,22.30
2023-04-22T08:03:34.223Z,22.60
2023-04-22T08:09:22.420Z,22.80
2023-04-22T08:12:20.560Z,22.80
2023-04-22T08:15:04.276Z,22.90
2023-04-22T08:17:52.478Z,23.00
2023-04-22T08:20:46.703Z,23.00
2023-04-22T08:38:08.796Z,24.20
2023-04-22T08:41:04.180Z,24.40
2023-04-22T08:43:52.183Z,24.40
2023-04-22T08:46:42.594Z,24.40
2023-04-22T08:52:15.968Z,24.50
2023-04-22T08:55:06.948Z,24.60
2023-04-22T09:00:39.920Z,24.70
2023-04-22T09:03:31.465Z,24.80
2023-04-22T09:06:16.528Z,24.70
2023-04-22T09:08:57.494Z,24.70
2023-04-22T09:11:36.768Z,24.80
2023-04-22T09:17:11.107Z,25.00
2023-04-22T09:19:45.278Z,25.00
2023-04-22T09:22:23.206Z,24.90
2023-04-22T09:25:02.830Z,24.90
2023-04-22T09:27:52.172Z,25.00
2023-04-22T09:33:27.475Z,24.80
2023-04-22T09:36:20.870Z,24.60
2023-04-22T09:39:11.560Z,24.40
2023-04-22T09:42:14.252Z,24.30
2023-04-22T09:44:58.991Z,24.20
2023-04-22T09:47:45.699Z,24.00
2023-04-22T09:50:24.937Z,24.20
2023-04-22T09:53:05.557Z,24.10
2023-04-22T09:55:45.358Z,24.00
2023-04-22T09:58:32.339Z,23.90
2023-04-22T10:01:09.880Z,24.00
2023-04-22T10:03:57.059Z,23.80
2023-04-22T10:06:41.849Z,23.80
2023-04-22T10:09:18.738Z,23.70
2023-04-22T10:11:59.774Z,23.80
2023-04-22T10:14:39.995Z,23.90
2023-04-22T10:17:22.322Z,23.90
2023-04-22T10:22:51.390Z,24.00
2023-04-22T10:25:26.365Z,23.90
2023-04-22T10:28:05.562Z,23.80
2023-04-22T10:30:45.306Z,23.80
2023-04-22T10:33:40.745Z,23.80
2023-04-22T10:36:16.131Z,23.90
2023-04-22T10:39:19.878Z,24.00
2023-04-22T10:42:01.081Z,24.00
2023-04-22T10:44:52.600Z,23.90
2023-04-22T10:47:26.770Z,23.90
2023-04-22T10:50:25.487Z,24.00
2023-04-22T10:53:05.485Z,24.00
2023-04-22T10:56:05.376Z,23.90
2023-04-22T10:58:53.210Z,23.80
2023-04-22T11:01:35.177Z,23.60
2023-04-22T11:04:26.893Z,23.40
2023-04-22T11:07:27.249Z,23.40
2023-04-22T11:10:20.077Z,23.40
2023-04-22T11:12:55.846Z,23.10
2023-04-22T11:15:35.107Z,23.10
2023-04-22T11:18:29.694Z,23.00
2023-04-22T11:21:08.400Z,23.00
2023-04-22T11:23:42.400Z,22.80
2023-04-22T11:26:30.988Z,22.60
2023-04-22T11:29:11.210Z,22.50
2023-04-22T11:31:52.452Z,22.40
2023-04-22T11:34:40.224Z,22.30
2023-04-22T11:37:18.870Z,22.30
2023-04-22T11:40:13.830Z,22.20
2023-04-22T11:42:54.610Z,22.20
2023-04-22T11:45:36.959Z,22.30
2023-04-22T11:48:12.235Z,22.30
2023-04-22T11:50:51.591Z,22.20
2023-04-22T11:53:44.967Z,22.00
2023-04-22T11:56:19.651Z,22.00
2023-04-22T11:59:06.213Z,22.00
2023-04-22T12:01:43.026Z,22.00
2023-04-22T12:04:21.394Z,21.90
2023-04-22T12:06:59.299Z,21.90
2023-04-22T12:09:38.133Z,21.80
2023-04-22T12:12:16.466Z,21.60
2023-04-22T12:15:03.014Z,21.60
2023-04-22T12:17:44.002Z,21.60
2023-04-22T12:20:25.073Z,21.70
2023-04-22T12:23:04.472Z,21.60
2023-04-22T12:25:40.753Z,21.50
2023-04-22T12:28:16.969Z,21.50
2023-04-22T12:30:59.705Z,21.40
2023-04-22T12:33:35.143Z,21.60
2023-04-22T12:36:15.831Z,21.70
2023-04-22T12:38:54.397Z,21.70
2023-04-22T12:41:36.394Z,21.70
2023-04-22T12:44:15.542Z,21.50
2023-04-22T12:47:04.326Z,21.30
2023-04-22T12:49:47.082Z,21.30
2023-04-22T12:52:26.192Z,21.30
2023-04-22T12:55:05.346Z,21.20
2023-04-22T12:57:43.113Z,21.20
2023-04-22T13:00:22.197Z,21.20
2023-04-22T13:03:08.043Z,21.20
2023-04-22T13:05:45.158Z,21.30
2023-04-22T13:08:29.190Z,21.10
2023-04-22T13:11:09.483Z,21.10
2023-04-22T13:13:58.350Z,21.00
2023-04-22T13:16:37.103Z,20.90
2023-04-22T13:19:17.580Z,20.90
2023-04-22T13:21:58.837Z,20.90
2023-04-22T13:24:36.855Z,20.90
2023-04-22T13:27:14.123Z,20.90
2023-04-22T13:29:50.006Z,20.90
2023-04-22T13:32:26.678Z,21.00
2023-04-22T13:35:09.008Z,21.00
2023-04-22T13:37:47.564Z,20.90
2023-04-22T13:40:27.320Z,20.90
2023-04-22T13:43:02.054Z,20.90
2023-04-22T13:45:45.182Z,20.90
2023-04-22T13:48:20.736Z,20.90
2023-04-22T13:51:01.731Z,21.00
2023-04-22T13:53:41.740Z,21.10
2023-04-22T13:56:20.642Z,21.10
2023-04-22T13:58:58.146Z,21.00
2023-04-22T14:01:39.905Z,20.90
2023-04-22T14:04:17.683Z,20.90
2023-04-22T14:07:01.487Z,20.80
2023-04-22T14:09:41.135Z,20.80
2023-04-22T14:12:19.361Z,20.80
2023-04-22T14:14:58.144Z,20.80
2023-04-22T14:17:36.503Z,20.80
2023-04-22T14:20:22.736Z,20.70
2023-04-22T14:23:07.643Z,20.70
2023-04-22T14:25:44.211Z,20.70
2023-04-22T14:28:21.598Z,20.70
2023-04-22T14:31:02.245Z,20.70
2023-04-22T14:33:36.422Z,20.70
2023-04-22T14:36:18.934Z,20.70
2023-04-22T14:39:00.642Z,20.70
2023-04-22T14:41:37.982Z,20.70
2023-04-22T14:44:16.906Z,20.70
2023-04-22T14:46:55.586Z,20.70
2023-04-22T14:49:38.201Z,20.70
2023-04-22T14:52:20.987Z,20.60
2023-04-22T14:55:15.558Z,20.70
2023-04-22T14:58:00.667Z,20.70
2023-04-22T15:00:37.341Z,20.70
2023-04-22T15:03:16.045Z,20.70
2023-04-22T15:05:56.778Z,20.70
2023-04-22T15:08:37.373Z,20.70
2023-04-22T15:11:16.644Z,20.70
2023-04-22T15:13:57.312Z,20.60
2023-04-22T15:16:34.174Z,20.60
2023-04-22T15:19:12.771Z,20.60
2023-04-22T15:21:49.680Z,20.50
2023-04-22T15:24:27.328Z,20.50
2023-04-22T15:27:09.181Z,20.50
2023-04-22T15:29:48.116Z,20.50
2023-04-22T15:32:25.128Z,20.50
2023-04-22T15:35:13.863Z,20.50
2023-04-22T15:37:48.403Z,20.50
2023-04-22T15:40:29.459Z,20.50
2023-04-22T15:43:13.701Z,20.40
2023-04-22T15:45:52.338Z,20.50
2023-04-22T15:48:29.159Z,20.40
2023-04-22T15:51:12.185Z,20.40
2023-04-22T15:53:48.240Z,20.40
2023-04-22T15:56:25.245Z,20.40
2023-04-22T15:59:06.446Z,20.40
2023-04-22T16:01:41.355Z,20.40
2023-04-22T16:04:24.979Z,20.40
2023-04-22T16:07:01.499Z,20.40
2023-04-22T16:09:37.846Z,20.30
2023-04-22T16:12:20.895Z,20.30
2023-04-22T16:14:56.821Z,20.30
2023-04-22T16:17:38.058Z,20.20
2023-04-22T16:20:19.218Z,20.20
2023-04-22T16:22:57.429Z,20.10
2023-04-22T16:25:33.987Z,20.10
2023-04-22T16:28:12.625Z,20.10
2023-04-22T16:30:49.534Z,20.10
2023-04-22T16:33:34.333Z,20.10
2023-04-22T16:36:10.700Z,20.10
2023-04-22T16:38:48.269Z,20.00
2023-04-22T16:41:26.713Z,20.00
2023-04-22T16:44:02.322Z,19.90
2023-04-22T16:46:37.898Z,19.90
2023-04-22T16:49:18.422Z,19.90
2023-04-22T16:51:54.768Z,19.90
2023-04-22T16:54:34.332Z,19.80
2023-04-22T16:57:17.717Z,19.80
2023-04-22T17:00:00.268Z,19.80
2023-04-22T17:02:36.514Z,19.70
2023-04-22T17:05:22.961Z,19.70
2023-04-22T17:08:03.648Z,19.60
2023-04-22T17:10:45.565Z,19.60
2023-04-22T17:13:25.884Z,19.50
2023-04-22T17:16:17.308Z,19.50
2023-04-22T17:18:54.562Z,19.50
2023-04-22T17:21:34.886Z,19.40
2023-04-22T17:24:16.656Z,19.40
2023-04-22T17:26:57.907Z,19.30
2023-04-22T17:29:36.522Z,19.30
2023-04-22T17:32:11.353Z,19.20
2023-04-22T17:34:50.660Z,19.20
2023-04-22T17:37:30.948Z,19.10
2023-04-22T17:40:08.997Z,19.10
2023-04-22T17:42:46.490Z,19.00
2023-04-22T17:45:24.943Z,19.00
2023-04-22T17:48:00.363Z,18.90
2023-04-22T17:50:35.956Z,18.90
2023-04-22T17:53:19.329Z,18.80
2023-04-22T17:55:54.250Z,18.80
2023-04-22T17:58:33.900Z,18.70
2023-04-22T18:01:10.270Z,18.60
2023-04-22T18:03:51.699Z,18.60
2023-04-22T18:06:29.630Z,18.50
2023-04-22T18:09:09.299Z,18.40
2023-04-22T18:11:46.836Z,18.30
2023-04-22T18:14:26.920Z,18.30
2023-04-22T18:17:04.590Z,18.20
2023-04-22T18:19:42.930Z,18.10
2023-04-22T18:22:17.715Z,18.10
2023-04-22T18:24:56.915Z,18.00
2023-04-22T18:27:32.420Z,17.90
2023-04-22T18:30:10.812Z,17.80
2023-04-22T18:32:46.248Z,17.70
2023-04-22T18:35:24.152Z,17.70
2023-04-22T18:38:02.458Z,17.60
2023-04-22T18:40:44.575Z,17.50
2023-04-22T18:43:20.621Z,17.40
2023-04-22T18:45:58.243Z,17.40
2023-04-22T18:48:35.843Z,17.30
2023-04-22T18:51:14.768Z,17.30
2023-04-22T18:53:57.179Z,17.20
2023-04-22T18:56:37.626Z,17.10
2023-04-22T18:59:14.586Z,17.00
2023-04-22T19:01:54.435Z,17.00
2023-04-22T19:04:31.671Z,16.90
2023-04-22T19:07:09.632Z,16.90
2023-04-22T19:09:48.274Z,16.80
2023-04-22T19:12:29.785Z,16.70
2023-04-22T19:15:09.166Z,16.60
2023-04-22T19:17:43.306Z,16.50
2023-04-22T19:20:19.114Z,16.50
2023-04-22T19:22:54.426Z,16.40
2023-04-22T19:25:30.763Z,16.30
2023-04-22T19:28:11.490Z,16.30
2023-04-22T19:30:47.620Z,16.20
2023-04-22T19:33:24.618Z,16.20
2023-04-22T19:36:01.200Z,16.10
2023-04-22T19:38:42.912Z,16.10
2023-04-22T19:41:17.975Z,16.00
2023-04-22T19:44:01.066Z,15.90
2023-04-22T19:46:41.033Z,15.80
2023-04-22T19:49:20.133Z,15.70
2023-04-22T19:51:57.984Z,15.60
2023-04-22T19:54:29.559Z,15.50
2023-04-22T19:57:09.131Z,15.30
2023-04-22T19:59:52.962Z,15.20
2023-04-22T20:02:33.953Z,15.10
2023-04-22T20:05:16.365Z,15.00
2023-04-22T20:07:59.899Z,14.80
2023-04-22T20:10:42.768Z,14.70
2023-04-22T20:13:23.201Z,14.60
2023-04-22T20:16:10.066Z,14.50
2023-04-22T20:18:48.984Z,14.50
2023-04-22T20:21:27.806Z,14.50
2023-04-22T20:24:12.480Z,14.50
2023-04-22T20:26:51.907Z,14.40
2023-04-22T20:29:30.647Z,14.30
2023-04-22T20:32:16.217Z,14.30
2023-04-22T20:34:55.326Z,14.20
2023-04-22T20:37:36.604Z,14.10
2023-04-22T20:40:19.603Z,14.00
2023-04-22T20:43:01.859Z,13.90
2023-04-22T20:45:39.559Z,13.80
2023-04-22T20:48:21.825Z,13.70
2023-04-22T20:50:58.010Z,13.60
2023-04-22T20:53:36.701Z,13.50
2023-04-22T20:56:16.618Z,13.40
2023-04-22T20:58:56.682Z,13.20
2023-04-22T21:01:35.199Z,13.10
2023-04-22T21:04:17.552Z,13.10
2023-04-22T21:06:53.934Z,13.10
2023-04-22T21:09:31.539Z,13.00
2023-04-22T21:12:09.079Z,12.90
2023-04-22T21:14:47.766Z,12.80
2023-04-22T21:17:24.405Z,12.80
2023-04-22T21:20:07.946Z,12.80
2023-04-22T21:22:45.448Z,12.60
2023-04-22T21:25:27.651Z,12.50
2023-04-22T21:28:09.356Z,12.40
2023-04-22T21:30:47.820Z,12.30
2023-04-22T21:33:21.300Z,12.30
2023-04-22T21:36:00.284Z,12.30
2023-04-22T21:38:38.806Z,12.20
2023-04-22T21:41:13.980Z,12.10
2023-04-22T21:43:50.474Z,12.10
2023-04-22T21:46:29.001Z,12.00
2023-04-22T21:49:06.680Z,12.00
2023-04-22T21:51:44.831Z,12.00
2023-04-22T21:54:20.949Z,11.90
2023-04-22T21:56:58.998Z,11.80
2023-04-22T21:59:34.642Z,11.80
2023-04-22T22:02:12.517Z,11.80
2023-04-22T22:04:56.198Z,11.70
2023-04-22T22:07:38.871Z,11.70
2023-04-22T22:10:15.040Z,11.60
2023-04-22T22:12:51.531Z,11.60
2023-04-22T22:15:28.346Z,11.60
2023-04-22T22:18:12.271Z,11.50
2023-04-22T22:20:49.309Z,11.50
2023-04-22T22:23:29.833Z,11.50
2023-04-22T22:26:08.631Z,11.50
2023-04-22T22:28:44.175Z,11.50
2023-04-22T22:31:20.662Z,11.40
2023-04-22T22:33:57.770Z,11.40
2023-04-22T22:36:36.619Z,11.40
2023-04-22T22:39:16.711Z,11.30
2023-04-22T22:41:52.567Z,11.30
2023-04-22T22:44:27.946Z,11.30
2023-04-22T22:47:06.522Z,11.20
2023-04-22T22:49:45.274Z,11.10
2023-04-22T22:52:21.937Z,11.10
2023-04-22T22:55:04.254Z,11.10
2023-04-22T22:57:41.285Z,11.00
2023-04-22T23:00:18.977Z,11.00
2023-04-22T23:02:57.364Z,11.00
2023-04-22T23:05:35.210Z,11.00
2023-04-22T23:08:11.315Z,11.00
2023-04-22T23:10:50.757Z,10.90
2023-04-22T23:13:26.346Z,11.00
2023-04-22T23:16:08.102Z,10.90
2023-04-22T23:18:44.730Z,10.90
2023-04-22T23:21:21.276Z,10.90
2023-04-22T23:24:02.065Z,10.90
2023-04-22T23:26:46.301Z,10.80
2023-04-22T23:29:21.841Z,10.60
2023-04-22T23:31:58.069Z,10.60
2023-04-22T23:34:37.149Z,10.50
2023-04-22T23:37:13.953Z,10.40
2023-04-22T23:39:52.472Z,10.40
2023-04-22T23:42:33.253Z,10.40
2023-04-22T23:45:13.649Z,10.30
2023-04-22T23:50:23.148Z,10.30
2023-04-22T23:52:59.297Z,10.30
2023-04-22T23:55:34.981Z,10.20
2023-04-22T23:58:14.801Z,10.20
